sensor_id;sensor_type;location;lat;lon;timestamp;temperature;humidity
67529;DHT22;54366;51.980;5.856;2023-03-08T00:00:31;1.80;81.60
67529;DHT22;54366;51.980;5.856;2023-03-08T00:03:04;1.80;81.80
67529;DHT22;54366;51.980;5.856;2023-03-08T00:05:37;1.80;81.90
67529;DHT22;54366;51.980;5.856;2023-03-08T00:08:10;1.70;81.90
67529;DHT22;54366;51.980;5.856;2023-03-08T00:10:43;1.70;82.00
67529;DHT22;54366;51.980;5.856;2023-03-08T00:13:16;1.70;82.00
67529;DHT22;54366;51.980;5.856;2023-03-08T00:15:49;1.70;81.90
67529;DHT22;54366;51.980;5.856;2023-03-08T00:18:15;1.70;81.90
67529;DHT22;54366;51.980;5.856;2023-03-08T00:21:09;1.70;82.00
67529;DHT22;54366;51.980;5.856;2023-03-08T00:23:43;1.70;82.10
67529;DHT22;54366;51.980;5.856;2023-03-08T00:26:17;1.70;82.00
67529;DHT22;54366;51.980;5.856;2023-03-08T00:28:50;1.70;82.00
67529;DHT22;54366;51.980;5.856;2023-03-08T00:31:27;1.60;82.10
67529;DHT22;54366;51.980;5.856;2023-03-08T00:33:59;1.60;82.20
67529;DHT22;54366;51.980;5.856;2023-03-08T00:36:33;1.60;82.30
67529;DHT22;54366;51.980;5.856;2023-03-08T00:39:06;1.70;82.40
67529;DHT22;54366;51.980;5.856;2023-03-08T00:41:39;1.70;82.50
67529;DHT22;54366;51.980;5.856;2023-03-08T00:44:12;1.70;82.50
67529;DHT22;54366;51.980;5.856;2023-03-08T00:46:45;1.60;82.40
67529;DHT22;54366;51.980;5.856;2023-03-08T00:49:19;1.60;82.50
67529;DHT22;54366;51.980;5.856;2023-03-08T00:51:52;1.70;82.70
67529;DHT22;54366;51.980;5.856;2023-03-08T00:54:25;1.70;82.90
67529;DHT22;54366;51.980;5.856;2023-03-08T00:56:58;1.70;83.00
67529;DHT22;54366;51.980;5.856;2023-03-08T00:59:31;1.70;82.80
67529;DHT22;54366;51.980;5.856;2023-03-08T01:02:05;1.70;82.80
67529;DHT22;54366;51.980;5.856;2023-03-08T01:04:39;1.60;82.80
67529;DHT22;54366;51.980;5.856;2023-03-08T01:07:12;1.70;82.90
67529;DHT22;54366;51.980;5.856;2023-03-08T01:09:46;1.70;82.70
67529;DHT22;54366;51.980;5.856;2023-03-08T01:12:19;1.60;82.60
67529;DHT22;54366;51.980;5.856;2023-03-08T01:14:54;1.60;82.70
67529;DHT22;54366;51.980;5.856;2023-03-08T01:17:27;1.60;82.70
67529;DHT22;54366;51.980;5.856;2023-03-08T01:20:00;1.60;82.50
67529;DHT22;54366;51.980;5.856;2023-03-08T01:22:40;1.60;82.70
67529;DHT22;54366;51.980;5.856;2023-03-08T01:25:13;1.50;82.80
67529;DHT22;54366;51.980;5.856;2023-03-08T01:27:46;1.60;82.70
67529;DHT22;54366;51.980;5.856;2023-03-08T01:30:19;1.60;82.60
67529;DHT22;54366;51.980;5.856;2023-03-08T01:32:52;1.50;82.50
67529;DHT22;54366;51.980;5.856;2023-03-08T01:35:25;1.40;82.40
67529;DHT22;54366;51.980;5.856;2023-03-08T01:37:58;1.50;82.70
67529;DHT22;54366;51.980;5.856;2023-03-08T01:40:31;1.40;82.80
67529;DHT22;54366;51.980;5.856;2023-03-08T01:43:37;1.50;82.90
67529;DHT22;54366;51.980;5.856;2023-03-08T01:46:28;1.40;82.60
67529;DHT22;54366;51.980;5.856;2023-03-08T01:49:23;1.40;82.40
67529;DHT22;54366;51.980;5.856;2023-03-08T01:52:07;1.40;82.60
67529;DHT22;54366;51.980;5.856;2023-03-08T01:54:46;1.40;82.70
67529;DHT22;54366;51.980;5.856;2023-03-08T01:57:29;1.40;82.80
67529;DHT22;54366;51.980;5.856;2023-03-08T02:00:08;1.40;82.90
67529;DHT22;54366;51.980;5.856;2023-03-08T02:02:58;1.50;83.10
67529;DHT22;54366;51.980;5.856;2023-03-08T02:05:33;1.50;83.00
67529;DHT22;54366;51.980;5.856;2023-03-08T02:08:14;1.50;83.10
67529;DHT22;54366;51.980;5.856;2023-03-08T02:10:47;1.50;83.20
67529;DHT22;54366;51.980;5.856;2023-03-08T02:13:21;1.50;83.20
67529;DHT22;54366;51.980;5.856;2023-03-08T02:15:56;1.50;83.30
67529;DHT22;54366;51.980;5.856;2023-03-08T02:18:36;1.50;83.30
67529;DHT22;54366;51.980;5.856;2023-03-08T02:21:16;1.50;83.40
67529;DHT22;54366;51.980;5.856;2023-03-08T02:23:42;1.50;83.60
67529;DHT22;54366;51.980;5.856;2023-03-08T02:26:15;1.70;83.80
67529;DHT22;54366;51.980;5.856;2023-03-08T02:28:42;1.60;83.80
67529;DHT22;54366;51.980;5.856;2023-03-08T02:31:16;1.60;83.90
67529;DHT22;54366;51.980;5.856;2023-03-08T02:33:49;1.70;84.00
67529;DHT22;54366;51.980;5.856;2023-03-08T02:36:26;1.70;84.00
67529;DHT22;54366;51.980;5.856;2023-03-08T02:38:59;1.70;84.20
67529;DHT22;54366;51.980;5.856;2023-03-08T02:41:27;1.70;84.20
67529;DHT22;54366;51.980;5.856;2023-03-08T02:44:01;1.80;84.30
67529;DHT22;54366;51.980;5.856;2023-03-08T02:46:34;1.80;84.40
67529;DHT22;54366;51.980;5.856;2023-03-08T02:49:01;1.80;84.40
67529;DHT22;54366;51.980;5.856;2023-03-08T02:51:34;1.80;84.40
67529;DHT22;54366;51.980;5.856;2023-03-08T02:54:07;1.80;84.40
67529;DHT22;54366;51.980;5.856;2023-03-08T02:56:40;1.80;84.40
67529;DHT22;54366;51.980;5.856;2023-03-08T02:59:13;1.80;84.50
67529;DHT22;54366;51.980;5.856;2023-03-08T03:01:42;1.80;84.50
67529;DHT22;54366;51.980;5.856;2023-03-08T03:04:16;1.90;84.70
67529;DHT22;54366;51.980;5.856;2023-03-08T03:06:49;1.90;84.50
67529;DHT22;54366;51.980;5.856;2023-03-08T03:09:22;1.80;84.50
67529;DHT22;54366;51.980;5.856;2023-03-08T03:11:55;1.90;84.30
67529;DHT22;54366;51.980;5.856;2023-03-08T03:14:31;1.90;84.50
67529;DHT22;54366;51.980;5.856;2023-03-08T03:17:04;1.90;84.40
67529;DHT22;54366;51.980;5.856;2023-03-08T03:19:43;1.80;84.60
67529;DHT22;54366;51.980;5.856;2023-03-08T03:22:23;1.90;84.80
67529;DHT22;54366;51.980;5.856;2023-03-08T03:24:56;1.90;84.70
67529;DHT22;54366;51.980;5.856;2023-03-08T03:27:29;1.90;84.80
67529;DHT22;54366;51.980;5.856;2023-03-08T03:29:55;1.90;84.80
67529;DHT22;54366;51.980;5.856;2023-03-08T03:32:29;1.90;84.70
67529;DHT22;54366;51.980;5.856;2023-03-08T03:35:03;1.90;84.70
67529;DHT22;54366;51.980;5.856;2023-03-08T03:37:37;1.90;84.60
67529;DHT22;54366;51.980;5.856;2023-03-08T03:40:11;1.80;84.60
67529;DHT22;54366;51.980;5.856;2023-03-08T03:42:49;1.80;84.60
67529;DHT22;54366;51.980;5.856;2023-03-08T03:45:23;1.80;85.10
67529;DHT22;54366;51.980;5.856;2023-03-08T03:47:56;1.80;85.20
67529;DHT22;54366;51.980;5.856;2023-03-08T03:50:29;1.90;85.20
67529;DHT22;54366;51.980;5.856;2023-03-08T03:53:07;1.80;85.30
67529;DHT22;54366;51.980;5.856;2023-03-08T03:55:41;1.80;85.20
67529;DHT22;54366;51.980;5.856;2023-03-08T03:58:14;1.80;85.40
67529;DHT22;54366;51.980;5.856;2023-03-08T04:00:47;1.80;85.50
67529;DHT22;54366;51.980;5.856;2023-03-08T04:03:28;1.80;85.60
67529;DHT22;54366;51.980;5.856;2023-03-08T04:06:11;1.80;85.60
67529;DHT22;54366;51.980;5.856;2023-03-08T04:08:46;1.80;85.70
67529;DHT22;54366;51.980;5.856;2023-03-08T04:11:22;1.80;85.90
67529;DHT22;54366;51.980;5.856;2023-03-08T04:13:49;1.90;86.00
67529;DHT22;54366;51.980;5.856;2023-03-08T04:16:27;1.80;86.00
67529;DHT22;54366;51.980;5.856;2023-03-08T04:19:12;1.80;86.60
67529;DHT22;54366;51.980;5.856;2023-03-08T04:21:50;1.90;86.10
67529;DHT22;54366;51.980;5.856;2023-03-08T04:24:26;1.90;86.10
67529;DHT22;54366;51.980;5.856;2023-03-08T04:27:04;1.90;86.20
67529;DHT22;54366;51.980;5.856;2023-03-08T04:29:38;1.90;86.10
67529;DHT22;54366;51.980;5.856;2023-03-08T04:32:11;1.90;86.00
67529;DHT22;54366;51.980;5.856;2023-03-08T04:34:48;2.00;86.00
67529;DHT22;54366;51.980;5.856;2023-03-08T04:37:24;2.00;85.80
67529;DHT22;54366;51.980;5.856;2023-03-08T04:40:04;2.00;86.00
67529;DHT22;54366;51.980;5.856;2023-03-08T04:42:51;2.00;85.90
67529;DHT22;54366;51.980;5.856;2023-03-08T04:45:30;2.00;86.00
67529;DHT22;54366;51.980;5.856;2023-03-08T04:48:08;2.00;86.00
67529;DHT22;54366;51.980;5.856;2023-03-08T04:50:41;2.00;85.80
67529;DHT22;54366;51.980;5.856;2023-03-08T04:53:14;2.10;85.70
67529;DHT22;54366;51.980;5.856;2023-03-08T04:55:41;2.10;85.70
67529;DHT22;54366;51.980;5.856;2023-03-08T04:58:14;2.10;85.60
67529;DHT22;54366;51.980;5.856;2023-03-08T05:00:47;2.10;85.50
67529;DHT22;54366;51.980;5.856;2023-03-08T05:03:20;2.10;85.50
67529;DHT22;54366;51.980;5.856;2023-03-08T05:05:49;2.10;85.50
67529;DHT22;54366;51.980;5.856;2023-03-08T05:08:23;2.10;85.60
67529;DHT22;54366;51.980;5.856;2023-03-08T05:10:57;2.20;85.60
67529;DHT22;54366;51.980;5.856;2023-03-08T05:13:37;2.10;85.50
67529;DHT22;54366;51.980;5.856;2023-03-08T05:16:10;2.10;85.60
67529;DHT22;54366;51.980;5.856;2023-03-08T05:18:43;2.20;85.40
67529;DHT22;54366;51.980;5.856;2023-03-08T05:21:33;2.20;85.50
67529;DHT22;54366;51.980;5.856;2023-03-08T05:24:06;2.10;85.30
67529;DHT22;54366;51.980;5.856;2023-03-08T05:26:39;2.10;85.30
67529;DHT22;54366;51.980;5.856;2023-03-08T05:29:15;2.20;85.40
67529;DHT22;54366;51.980;5.856;2023-03-08T05:31:49;2.20;85.50
67529;DHT22;54366;51.980;5.856;2023-03-08T05:34:23;2.20;85.50
67529;DHT22;54366;51.980;5.856;2023-03-08T05:36:49;2.20;85.40
67529;DHT22;54366;51.980;5.856;2023-03-08T05:39:22;2.20;85.40
67529;DHT22;54366;51.980;5.856;2023-03-08T05:42:01;2.20;85.50
67529;DHT22;54366;51.980;5.856;2023-03-08T05:44:38;2.20;85.50
67529;DHT22;54366;51.980;5.856;2023-03-08T05:47:13;2.20;85.20
67529;DHT22;54366;51.980;5.856;2023-03-08T05:49:46;2.20;85.20
67529;DHT22;54366;51.980;5.856;2023-03-08T05:52:20;2.10;85.10
67529;DHT22;54366;51.980;5.856;2023-03-08T05:54:53;2.10;85.20
67529;DHT22;54366;51.980;5.856;2023-03-08T05:57:27;2.20;85.30
67529;DHT22;54366;51.980;5.856;2023-03-08T05:59:53;2.20;85.20
67529;DHT22;54366;51.980;5.856;2023-03-08T06:02:28;2.20;85.10
67529;DHT22;54366;51.980;5.856;2023-03-08T06:05:01;2.20;85.00
67529;DHT22;54366;51.980;5.856;2023-03-08T06:07:34;2.20;85.00
67529;DHT22;54366;51.980;5.856;2023-03-08T06:10:07;2.20;85.10
67529;DHT22;54366;51.980;5.856;2023-03-08T06:12:40;2.10;85.00
67529;DHT22;54366;51.980;5.856;2023-03-08T06:15:16;2.10;85.10
67529;DHT22;54366;51.980;5.856;2023-03-08T06:17:52;2.10;85.10
67529;DHT22;54366;51.980;5.856;2023-03-08T06:20:32;2.00;85.20
67529;DHT22;54366;51.980;5.856;2023-03-08T06:23:12;2.10;85.20
67529;DHT22;54366;51.980;5.856;2023-03-08T06:25:45;2.00;85.40
67529;DHT22;54366;51.980;5.856;2023-03-08T06:28:11;2.00;85.40
67529;DHT22;54366;51.980;5.856;2023-03-08T06:30:45;2.00;85.40
67529;DHT22;54366;51.980;5.856;2023-03-08T06:33:19;2.00;85.60
67529;DHT22;54366;51.980;5.856;2023-03-08T06:35:58;2.00;85.80
67529;DHT22;54366;51.980;5.856;2023-03-08T06:38:33;2.00;85.70
67529;DHT22;54366;51.980;5.856;2023-03-08T06:41:07;2.00;85.90
67529;DHT22;54366;51.980;5.856;2023-03-08T06:43:42;2.00;85.90
67529;DHT22;54366;51.980;5.856;2023-03-08T06:46:17;2.10;85.90
67529;DHT22;54366;51.980;5.856;2023-03-08T06:48:50;2.10;85.90
67529;DHT22;54366;51.980;5.856;2023-03-08T06:51:23;2.00;85.80
67529;DHT22;54366;51.980;5.856;2023-03-08T06:53:56;2.10;85.80
67529;DHT22;54366;51.980;5.856;2023-03-08T06:56:29;2.00;85.80
67529;DHT22;54366;51.980;5.856;2023-03-08T06:59:02;2.00;85.70
67529;DHT22;54366;51.980;5.856;2023-03-08T07:01:35;2.10;85.70
67529;DHT22;54366;51.980;5.856;2023-03-08T07:04:08;2.10;85.80
67529;DHT22;54366;51.980;5.856;2023-03-08T07:06:34;2.10;85.90
67529;DHT22;54366;51.980;5.856;2023-03-08T07:09:07;2.10;85.80
67529;DHT22;54366;51.980;5.856;2023-03-08T07:11:40;2.00;85.80
67529;DHT22;54366;51.980;5.856;2023-03-08T07:14:13;2.00;85.80
67529;DHT22;54366;51.980;5.856;2023-03-08T07:16:46;2.10;86.00
67529;DHT22;54366;51.980;5.856;2023-03-08T07:19:13;2.10;85.80
67529;DHT22;54366;51.980;5.856;2023-03-08T07:21:52;2.10;85.80
67529;DHT22;54366;51.980;5.856;2023-03-08T07:24:25;2.10;85.80
67529;DHT22;54366;51.980;5.856;2023-03-08T07:26:51;2.10;85.80
67529;DHT22;54366;51.980;5.856;2023-03-08T07:29:24;2.10;85.80
67529;DHT22;54366;51.980;5.856;2023-03-08T07:31:57;2.20;85.90
67529;DHT22;54366;51.980;5.856;2023-03-08T07:34:23;2.20;85.90
67529;DHT22;54366;51.980;5.856;2023-03-08T07:36:56;2.10;85.90
67529;DHT22;54366;51.980;5.856;2023-03-08T07:39:29;2.20;85.90
67529;DHT22;54366;51.980;5.856;2023-03-08T07:41:55;2.20;85.80
67529;DHT22;54366;51.980;5.856;2023-03-08T07:44:28;2.30;86.00
67529;DHT22;54366;51.980;5.856;2023-03-08T07:47:01;2.20;85.90
67529;DHT22;54366;51.980;5.856;2023-03-08T07:49:34;2.30;86.00
67529;DHT22;54366;51.980;5.856;2023-03-08T07:52:07;2.30;86.00
67529;DHT22;54366;51.980;5.856;2023-03-08T07:54:40;2.30;85.90
67529;DHT22;54366;51.980;5.856;2023-03-08T07:57:13;2.30;85.90
67529;DHT22;54366;51.980;5.856;2023-03-08T07:59:48;2.40;86.00
67529;DHT22;54366;51.980;5.856;2023-03-08T08:02:21;2.40;86.00
67529;DHT22;54366;51.980;5.856;2023-03-08T08:04:54;2.40;86.00
67529;DHT22;54366;51.980;5.856;2023-03-08T08:07:27;2.40;86.00
67529;DHT22;54366;51.980;5.856;2023-03-08T08:10:00;2.40;85.90
67529;DHT22;54366;51.980;5.856;2023-03-08T08:12:33;2.50;85.90
67529;DHT22;54366;51.980;5.856;2023-03-08T08:15:06;2.50;86.00
67529;DHT22;54366;51.980;5.856;2023-03-08T08:17:39;2.50;86.00
67529;DHT22;54366;51.980;5.856;2023-03-08T08:20:06;2.50;86.10
67529;DHT22;54366;51.980;5.856;2023-03-08T08:22:41;2.50;86.50
67529;DHT22;54366;51.980;5.856;2023-03-08T08:25:23;2.50;85.90
67529;DHT22;54366;51.980;5.856;2023-03-08T08:27:56;2.50;85.90
67529;DHT22;54366;51.980;5.856;2023-03-08T08:30:29;2.60;85.90
67529;DHT22;54366;51.980;5.856;2023-03-08T08:33:02;2.60;86.00
67529;DHT22;54366;51.980;5.856;2023-03-08T08:35:38;2.60;85.90
67529;DHT22;54366;51.980;5.856;2023-03-08T08:38:11;2.70;86.00
67529;DHT22;54366;51.980;5.856;2023-03-08T08:40:44;2.70;85.90
67529;DHT22;54366;51.980;5.856;2023-03-08T08:43:17;2.70;85.80
67529;DHT22;54366;51.980;5.856;2023-03-08T08:45:51;2.80;85.80
67529;DHT22;54366;51.980;5.856;2023-03-08T08:48:26;2.80;85.90
67529;DHT22;54366;51.980;5.856;2023-03-08T08:50:59;2.80;85.80
67529;DHT22;54366;51.980;5.856;2023-03-08T08:53:26;2.90;85.80
67529;DHT22;54366;51.980;5.856;2023-03-08T08:56:08;2.90;85.70
67529;DHT22;54366;51.980;5.856;2023-03-08T08:58:41;2.90;85.40
67529;DHT22;54366;51.980;5.856;2023-03-08T09:01:15;3.00;85.40
67529;DHT22;54366;51.980;5.856;2023-03-08T09:03:49;3.10;85.50
67529;DHT22;54366;51.980;5.856;2023-03-08T09:06:23;3.10;85.50
67529;DHT22;54366;51.980;5.856;2023-03-08T09:08:57;3.10;85.10
67529;DHT22;54366;51.980;5.856;2023-03-08T09:11:30;3.20;85.10
67529;DHT22;54366;51.980;5.856;2023-03-08T09:14:03;3.20;84.80
67529;DHT22;54366;51.980;5.856;2023-03-08T09:16:36;3.20;84.70
67529;DHT22;54366;51.980;5.856;2023-03-08T09:19:09;3.20;84.60
67529;DHT22;54366;51.980;5.856;2023-03-08T09:21:48;3.20;84.90
67529;DHT22;54366;51.980;5.856;2023-03-08T09:24:21;3.20;84.00
67529;DHT22;54366;51.980;5.856;2023-03-08T09:27:04;3.20;84.00
67529;DHT22;54366;51.980;5.856;2023-03-08T09:29:37;3.30;83.70
67529;DHT22;54366;51.980;5.856;2023-03-08T09:32:10;3.20;83.70
67529;DHT22;54366;51.980;5.856;2023-03-08T09:34:36;3.20;83.10
67529;DHT22;54366;51.980;5.856;2023-03-08T09:37:10;3.20;83.30
67529;DHT22;54366;51.980;5.856;2023-03-08T09:39:43;3.10;82.60
67529;DHT22;54366;51.980;5.856;2023-03-08T09:42:25;3.20;82.60
67529;DHT22;54366;51.980;5.856;2023-03-08T09:45:23;3.20;82.60
67529;DHT22;54366;51.980;5.856;2023-03-08T09:48:12;3.20;82.20
67529;DHT22;54366;51.980;5.856;2023-03-08T09:50:53;3.20;82.40
67529;DHT22;54366;51.980;5.856;2023-03-08T09:53:40;3.30;82.20
67529;DHT22;54366;51.980;5.856;2023-03-08T09:56:36;3.30;81.90
67529;DHT22;54366;51.980;5.856;2023-03-08T09:59:18;3.30;82.10
67529;DHT22;54366;51.980;5.856;2023-03-08T10:08:25;3.40;81.40
67529;DHT22;54366;51.980;5.856;2023-03-08T10:11:03;3.40;81.50
67529;DHT22;54366;51.980;5.856;2023-03-08T10:13:41;3.40;81.90
67529;DHT22;54366;51.980;5.856;2023-03-08T10:16:26;3.50;81.10
67529;DHT22;54366;51.980;5.856;2023-03-08T10:19:36;3.50;81.60
67529;DHT22;54366;51.980;5.856;2023-03-08T10:22:27;3.60;81.00
67529;DHT22;54366;51.980;5.856;2023-03-08T10:25:30;3.60;81.60
67529;DHT22;54366;51.980;5.856;2023-03-08T10:28:14;3.70;81.60
67529;DHT22;54366;51.980;5.856;2023-03-08T10:30:50;3.80;81.10
67529;DHT22;54366;51.980;5.856;2023-03-08T10:33:24;3.80;79.90
67529;DHT22;54366;51.980;5.856;2023-03-08T10:36:17;3.90;80.40
67529;DHT22;54366;51.980;5.856;2023-03-08T10:38:59;3.90;80.40
67529;DHT22;54366;51.980;5.856;2023-03-08T10:45:12;4.00;80.70
67529;DHT22;54366;51.980;5.856;2023-03-08T10:47:57;4.00;79.40
67529;DHT22;54366;51.980;5.856;2023-03-08T10:50:32;4.00;79.60
67529;DHT22;54366;51.980;5.856;2023-03-08T10:53:15;4.00;79.80
67529;DHT22;54366;51.980;5.856;2023-03-08T10:55:50;4.10;80.00
67529;DHT22;54366;51.980;5.856;2023-03-08T10:58:38;4.10;80.50
67529;DHT22;54366;51.980;5.856;2023-03-08T11:01:46;4.10;80.80
67529;DHT22;54366;51.980;5.856;2023-03-08T11:04:22;4.20;80.40
67529;DHT22;54366;51.980;5.856;2023-03-08T11:06:55;4.30;79.30
67529;DHT22;54366;51.980;5.856;2023-03-08T11:09:30;4.30;79.40
67529;DHT22;54366;51.980;5.856;2023-03-08T11:12:03;4.30;78.80
67529;DHT22;54366;51.980;5.856;2023-03-08T11:14:36;4.40;78.80
67529;DHT22;54366;51.980;5.856;2023-03-08T11:17:33;4.50;79.20
67529;DHT22;54366;51.980;5.856;2023-03-08T11:20:27;4.60;77.30
67529;DHT22;54366;51.980;5.856;2023-03-08T11:29:53;4.60;77.70
67529;DHT22;54366;51.980;5.856;2023-03-08T11:36:11;4.60;78.00
67529;DHT22;54366;51.980;5.856;2023-03-08T11:38:56;4.50;76.70
67529;DHT22;54366;51.980;5.856;2023-03-08T11:42:05;4.50;77.00
67529;DHT22;54366;51.980;5.856;2023-03-08T11:45:32;4.50;77.10
67529;DHT22;54366;51.980;5.856;2023-03-08T11:48:40;4.50;76.30
67529;DHT22;54366;51.980;5.856;2023-03-08T11:51:32;4.60;75.60
67529;DHT22;54366;51.980;5.856;2023-03-08T11:54:40;4.60;74.90
67529;DHT22;54366;51.980;5.856;2023-03-08T11:57:16;4.60;73.60
67529;DHT22;54366;51.980;5.856;2023-03-08T11:59:58;4.60;74.60
67529;DHT22;54366;51.980;5.856;2023-03-08T12:02:46;4.60;74.50
67529;DHT22;54366;51.980;5.856;2023-03-08T12:05:32;4.60;74.70
67529;DHT22;54366;51.980;5.856;2023-03-08T12:08:30;4.70;75.60
67529;DHT22;54366;51.980;5.856;2023-03-08T12:11:29;4.60;75.00
67529;DHT22;54366;51.980;5.856;2023-03-08T12:14:10;4.60;75.30
67529;DHT22;54366;51.980;5.856;2023-03-08T12:17:01;4.70;74.60
67529;DHT22;54366;51.980;5.856;2023-03-08T12:19:44;4.70;75.00
67529;DHT22;54366;51.980;5.856;2023-03-08T12:22:46;4.70;75.10
67529;DHT22;54366;51.980;5.856;2023-03-08T12:25:26;4.70;74.80
67529;DHT22;54366;51.980;5.856;2023-03-08T12:28:19;4.70;74.10
67529;DHT22;54366;51.980;5.856;2023-03-08T12:31:28;4.70;74.30
67529;DHT22;54366;51.980;5.856;2023-03-08T12:37:03;4.70;74.80
67529;DHT22;54366;51.980;5.856;2023-03-08T12:39:37;4.70;74.40
67529;DHT22;54366;51.980;5.856;2023-03-08T12:42:15;4.70;74.10
67529;DHT22;54366;51.980;5.856;2023-03-08T12:44:48;4.70;74.00
67529;DHT22;54366;51.980;5.856;2023-03-08T12:47:21;4.80;74.40
67529;DHT22;54366;51.980;5.856;2023-03-08T12:49:55;4.90;73.60
67529;DHT22;54366;51.980;5.856;2023-03-08T12:52:31;4.90;74.30
67529;DHT22;54366;51.980;5.856;2023-03-08T12:55:20;4.90;74.50
67529;DHT22;54366;51.980;5.856;2023-03-08T12:58:02;5.00;74.40
67529;DHT22;54366;51.980;5.856;2023-03-08T13:00:36;5.00;73.90
67529;DHT22;54366;51.980;5.856;2023-03-08T13:03:37;4.90;73.40
67529;DHT22;54366;51.980;5.856;2023-03-08T13:09:49;4.80;73.10
67529;DHT22;54366;51.980;5.856;2023-03-08T13:12:38;4.80;72.60
67529;DHT22;54366;51.980;5.856;2023-03-08T13:15:22;4.70;72.90
67529;DHT22;54366;51.980;5.856;2023-03-08T13:21:24;4.70;71.40
67529;DHT22;54366;51.980;5.856;2023-03-08T13:24:10;4.70;72.10
67529;DHT22;54366;51.980;5.856;2023-03-08T13:28:14;4.70;72.70
67529;DHT22;54366;51.980;5.856;2023-03-08T13:29:50;4.70;71.60
67529;DHT22;54366;51.980;5.856;2023-03-08T13:32:24;4.60;71.60
67529;DHT22;54366;51.980;5.856;2023-03-08T13:35:04;4.60;72.20
67529;DHT22;54366;51.980;5.856;2023-03-08T13:37:37;4.60;71.50
67529;DHT22;54366;51.980;5.856;2023-03-08T13:40:19;4.60;71.80
67529;DHT22;54366;51.980;5.856;2023-03-08T13:43:00;4.60;71.90
67529;DHT22;54366;51.980;5.856;2023-03-08T13:45:46;4.70;72.30
67529;DHT22;54366;51.980;5.856;2023-03-08T13:48:20;4.70;72.60
67529;DHT22;54366;51.980;5.856;2023-03-08T13:50:53;4.70;72.30
67529;DHT22;54366;51.980;5.856;2023-03-08T13:53:28;4.70;72.60
67529;DHT22;54366;51.980;5.856;2023-03-08T13:56:03;4.70;72.40
67529;DHT22;54366;51.980;5.856;2023-03-08T13:58:44;4.70;71.30
67529;DHT22;54366;51.980;5.856;2023-03-08T14:01:22;4.70;70.60
67529;DHT22;54366;51.980;5.856;2023-03-08T14:03:56;4.80;70.00
67529;DHT22;54366;51.980;5.856;2023-03-08T14:06:32;4.70;70.10
67529;DHT22;54366;51.980;5.856;2023-03-08T14:09:09;4.70;70.50
67529;DHT22;54366;51.980;5.856;2023-03-08T14:11:42;4.80;70.40
67529;DHT22;54366;51.980;5.856;2023-03-08T14:14:36;4.70;70.30
67529;DHT22;54366;51.980;5.856;2023-03-08T14:17:20;4.70;70.60
67529;DHT22;54366;51.980;5.856;2023-03-08T14:19:56;4.70;70.40
67529;DHT22;54366;51.980;5.856;2023-03-08T14:22:44;4.70;70.20
67529;DHT22;54366;51.980;5.856;2023-03-08T14:25:28;4.70;71.10
67529;DHT22;54366;51.980;5.856;2023-03-08T14:28:35;4.70;70.50
67529;DHT22;54366;51.980;5.856;2023-03-08T14:31:28;4.70;71.00
67529;DHT22;54366;51.980;5.856;2023-03-08T14:34:14;4.70;71.00
67529;DHT22;54366;51.980;5.856;2023-03-08T14:37:28;4.70;71.20
67529;DHT22;54366;51.980;5.856;2023-03-08T14:40:43;4.70;71.80
67529;DHT22;54366;51.980;5.856;2023-03-08T14:43:22;4.70;72.60
67529;DHT22;54366;51.980;5.856;2023-03-08T14:46:04;4.70;73.20
67529;DHT22;54366;51.980;5.856;2023-03-08T14:48:38;4.70;73.90
67529;DHT22;54366;51.980;5.856;2023-03-08T14:51:38;4.70;74.10
67529;DHT22;54366;51.980;5.856;2023-03-08T14:54:38;4.70;74.30
67529;DHT22;54366;51.980;5.856;2023-03-08T14:57:37;4.70;74.60
67529;DHT22;54366;51.980;5.856;2023-03-08T15:00:13;4.70;74.90
67529;DHT22;54366;51.980;5.856;2023-03-08T15:02:47;4.70;75.10
67529;DHT22;54366;51.980;5.856;2023-03-08T15:05:16;4.70;75.20
67529;DHT22;54366;51.980;5.856;2023-03-08T15:07:51;4.70;75.50
67529;DHT22;54366;51.980;5.856;2023-03-08T15:10:30;4.80;75.70
67529;DHT22;54366;51.980;5.856;2023-03-08T15:13:05;4.80;75.50
67529;DHT22;54366;51.980;5.856;2023-03-08T15:15:39;4.70;75.40
67529;DHT22;54366;51.980;5.856;2023-03-08T15:18:12;4.80;75.10
67529;DHT22;54366;51.980;5.856;2023-03-08T15:20:46;4.70;75.40
67529;DHT22;54366;51.980;5.856;2023-03-08T15:23:34;4.70;75.70
67529;DHT22;54366;51.980;5.856;2023-03-08T15:26:07;4.60;75.20
67529;DHT22;54366;51.980;5.856;2023-03-08T15:28:40;4.60;75.30
67529;DHT22;54366;51.980;5.856;2023-03-08T15:31:13;4.60;75.70
67529;DHT22;54366;51.980;5.856;2023-03-08T15:33:46;4.60;76.30
67529;DHT22;54366;51.980;5.856;2023-03-08T15:36:19;4.50;76.20
67529;DHT22;54366;51.980;5.856;2023-03-08T15:38:52;4.50;76.50
67529;DHT22;54366;51.980;5.856;2023-03-08T15:41:25;4.50;76.70
67529;DHT22;54366;51.980;5.856;2023-03-08T15:43:58;4.50;76.80
67529;DHT22;54366;51.980;5.856;2023-03-08T15:46:31;4.50;77.30
67529;DHT22;54366;51.980;5.856;2023-03-08T15:49:04;4.50;77.30
67529;DHT22;54366;51.980;5.856;2023-03-08T15:51:37;4.50;78.00
67529;DHT22;54366;51.980;5.856;2023-03-08T15:54:04;4.50;77.40
67529;DHT22;54366;51.980;5.856;2023-03-08T15:56:38;4.50;77.30
67529;DHT22;54366;51.980;5.856;2023-03-08T15:59:11;4.40;77.60
67529;DHT22;54366;51.980;5.856;2023-03-08T16:01:44;4.40;78.00
67529;DHT22;54366;51.980;5.856;2023-03-08T16:04:17;4.40;78.10
67529;DHT22;54366;51.980;5.856;2023-03-08T16:06:43;4.30;78.40
67529;DHT22;54366;51.980;5.856;2023-03-08T16:09:16;4.30;78.30
67529;DHT22;54366;51.980;5.856;2023-03-08T16:11:49;4.30;79.00
67529;DHT22;54366;51.980;5.856;2023-03-08T16:14:22;4.30;78.70
67529;DHT22;54366;51.980;5.856;2023-03-08T16:16:55;4.20;78.80
67529;DHT22;54366;51.980;5.856;2023-03-08T16:19:34;4.20;79.10
67529;DHT22;54366;51.980;5.856;2023-03-08T16:22:07;4.20;79.00
67529;DHT22;54366;51.980;5.856;2023-03-08T16:24:40;4.20;79.20
67529;DHT22;54366;51.980;5.856;2023-03-08T16:27:20;4.10;79.20
67529;DHT22;54366;51.980;5.856;2023-03-08T16:29:54;4.10;79.50
67529;DHT22;54366;51.980;5.856;2023-03-08T16:32:27;4.10;79.70
67529;DHT22;54366;51.980;5.856;2023-03-08T16:34:57;4.00;79.70
67529;DHT22;54366;51.980;5.856;2023-03-08T16:37:30;4.10;79.90
67529;DHT22;54366;51.980;5.856;2023-03-08T16:40:04;4.10;80.10
67529;DHT22;54366;51.980;5.856;2023-03-08T16:42:38;4.00;80.10
67529;DHT22;54366;51.980;5.856;2023-03-08T16:45:14;4.00;80.20
67529;DHT22;54366;51.980;5.856;2023-03-08T16:47:40;4.00;80.20
67529;DHT22;54366;51.980;5.856;2023-03-08T16:50:13;4.00;80.50
67529;DHT22;54366;51.980;5.856;2023-03-08T16:52:46;4.00;80.30
67529;DHT22;54366;51.980;5.856;2023-03-08T16:55:12;4.00;80.70
67529;DHT22;54366;51.980;5.856;2023-03-08T16:57:45;3.90;81.20
67529;DHT22;54366;51.980;5.856;2023-03-08T17:00:18;3.90;80.70
67529;DHT22;54366;51.980;5.856;2023-03-08T17:02:52;3.90;80.90
67529;DHT22;54366;51.980;5.856;2023-03-08T17:05:18;3.90;81.00
67529;DHT22;54366;51.980;5.856;2023-03-08T17:07:51;3.90;81.00
67529;DHT22;54366;51.980;5.856;2023-03-08T17:10:24;3.90;81.00
67529;DHT22;54366;51.980;5.856;2023-03-08T17:12:50;3.80;80.90
67529;DHT22;54366;51.980;5.856;2023-03-08T17:15:23;3.80;81.10
67529;DHT22;54366;51.980;5.856;2023-03-08T17:17:56;3.80;81.10